默认 日期 大小 文件数 浏览量 最新下载 xml
2016-01磁力链接相关资源由用户搜索指令自动获取,结果来源于网络,本站不存储任何资料,亦不承担任何责任,请于24小时内删除,搜索到4953个磁力,显示前4000条数据,用时34ms。
    {"bex_riley_reid_bb052016_480p_1000.mp4": 334664026}
创建时间: 2019-06-06 02:40:08 大小:319.16 MB 文件数量:1 热度:10 最近下载:2024-11-10 22:40:02
    {"": {"Jules Jordan - Jessa Rhodes { Jessa Rhodes Gets Greased Up To Tame A Massive Snake - 08.01.2016 } NEW August 01 2016 480p.mp4": 386804525}}
创建时间: 2019-06-06 05:50:57 大小:368.89 MB 文件数量:1 热度:14 最近下载:2025-02-18 02:35:02
    ... Масква.2016.DXP.01.avi": 721648910, "Салам Масква.2016.DXP.02 ... .avi": 627404450, "Салам Масква.2016 ... ": 639366702, "Салам Масква.2016.DXP.04.avi": 625538760, ... "Салам Масква.2016.DXP.05.avi": 627609810, ...
创建时间: 2019-06-06 14:30:57 大小:4.77 GB 文件数量:8 热度:4 最近下载:2022-04-09 06:42:33
    {"[#AnimeNSK]_Berserk_-_2016_-_01_[Blu-Ray_1920x1080]_[HEVC_10Bit]_(A22A8C60).mkv": 518029350, "[#AnimeNSK]_Berserk_-_2016_-_02_[Blu-Ray_1920x1080]_[HEVC_10Bit]_(A80BE7F8).mkv": 541789931, "[#AnimeNSK]_Berserk_-_2016_-_03_[Blu-Ray_1920x1080]_[HEVC_10Bit]_( ...
创建时间: 2019-06-07 04:48:35 大小:6.01 GB 文件数量:12 热度:7 最近下载:2024-12-06 21:42:02
    {"Legendas": {"Shadowhunters.2016.S01E01.720p.WEB-DL.x264. ... , "BLUDV ACESSE.url": 110, "Shadowhunters.2016.S01E01.720p.WEB-DL.x264 ...
创建时间: 2019-06-07 07:22:56 大小:441.14 MB 文件数量:5 热度:3 最近下载:2021-06-17 16:25:58
    ... 大腦(第三季) [2016-01-08][HDTV-MKV][國語 ... 大腦(第三季) [2016-01-15][HDTV-MKV][國語 ... 大腦(第三季) [2016-01-22][HDTV-MKV][國語 ... 腦(第三季) [2016-01-29][HDTV-MKV][國語 ... 大腦(第三季) [2016-02-05][HDTV-MKV][ ... 大腦(第三季) [2016-02-12][HDTV-MKV][ ... 大腦(第三季) [2016-02-19][HDTV-MKV][ ... 腦(第三季) [2016-04-01][HDTV-MKV][國語 ...
创建时间: 2019-06-07 14:56:59 大小:10.76 GB 文件数量:15 热度:16 最近下载:2025-02-05 05:39:02
    {"Torrent Downloaded From ExtraTorrent.cc.nfo": 338, "Exxxtrasmall - Rhaya Shyne - Tiny Tunes And Tinier Tits.mp4": 618438860}
创建时间: 2019-06-08 01:44:24 大小:589.79 MB 文件数量:2 热度:8 最近下载:2023-04-24 20:30:21
    {"TV我愛你論壇.url": 916, "转載本站提供的資源請注明 ★tv520.funbbs.me★.txt": 864, "★tv520.funbbs.me★16 公公出宮 [2016-03-01][HDTV-MP4][粵語中字].mp4": 489904740}
创建时间: 2019-06-08 05:54:48 大小:467.21 MB 文件数量:3 热度:13 最近下载:2025-02-20 20:14:01
    {"The Sound Of Trance Vol.01 (2016).png": 1182349, "The Sound Of ... Trance Vol.01 (2016).txt": 1552, "24-kova-thruster_ ... -phoria_(original_mix)-ad05a4d8.mp3": 19877838, "01-alan_morris-julie_(extended_mix)-f56683ad.mp3 ...
创建时间: 2019-06-08 15:30:36 大小:387.11 MB 文件数量:27 热度:5 最近下载:2025-01-26 10:02:04
    {"buried_in_booty_big.mp4": 380970054, "Torrent Downloaded From ExtraTorrent.cc.nfo": 338}
创建时间: 2019-06-10 02:53:51 大小:363.32 MB 文件数量:2 热度:4 最近下载:2021-06-17 16:25:58
    {"hlaf.16.02.01.christina.shine.and.kayla.green.mp4": 1551072410}
创建时间: 2019-06-10 08:23:35 大小:1.44 GB 文件数量:1 热度:16 最近下载:2023-02-21 15:40:03
    {"[Blacked] August Ames & Valentina Nappi [01.21.2016] [1080P].jpg": 834248, "[Blacked] August Ames & Valentina Nappi [01.21.2016] [1080P].mp4": 3164147199}
创建时间: 2019-06-10 10:18:52 大小:2.95 GB 文件数量:2 热度:51 最近下载:2025-06-04 20:58:01
    {"0OST Mann Mayal Hum Tv ★★ShAbi PaK★★.mp4": 58923791, "Mann Mayal Hum Tv Ep01 ★★ShAbi PaK★★.mp4": 384986619, "Mann Mayal Hum Tv Ep02 ★★ShAbi PaK★★.mp4": 402795166, "Mann Mayal Hum Tv Ep03 ★★ShAbi PaK★★.mp4": 345625673, "Mann Mayal Hum Tv Ep04 ★★ShAbi PaK ...
创建时间: 2019-06-10 10:23:03 大小:3.62 GB 文件数量:11 热度:10 最近下载:2025-02-21 04:39:04
    {"Day 1 (05.01.16)": {"06. 451b - AFC Marathon ... 8 Years Anniversary.mp3": 144259650, "01. Temple One - AFC Marathon - ... mp3": 141844891}, "Day 2 (06.01.16)": {"05. ARDI - AFC ... 8 Years Anniversary.mp3": 143231471, "01. Artisan - AFC Marathon - ArminForum ...
创建时间: 2019-06-11 00:17:22 大小:3.74 GB 文件数量:28 热度:4 最近下载:2022-04-13 07:16:21
    {"[EvilAngel] 2016-02-01 - Alexa Nova - Hookup Hotshot Extreme Dating - Scene 2 mp4 720p.mp4": 1689726416, "[EvilAngel] 2016-02-01 - Alexa Nova - Hookup Hotshot Extreme Dating - Scene 2 mp4 720p.jpeg": 938588}
创建时间: 2019-06-12 00:12:40 大小:1.57 GB 文件数量:2 热度:12 最近下载:2023-03-28 02:30:02
    {"Voltron - Legendary Defender 01 (of 04) (2016) (digital) (Minutemen-Midas).cbr": 45039457, " ... - Legendary Defender 02 (of 04) (2016) (digital) (Minutemen-Midas).cbr": 46822555 ... - Legendary Defender 03 (of 04) (2016) (digital) (Minutemen-Midas).cbr": 44108935 ...
创建时间: 2019-06-12 01:13:02 大小:129.67 MB 文件数量:3 热度:5 最近下载:2024-12-21 01:24:01
    {"0.jpg": 226011, "Harmony White - 40G-cup Babysitter Likes Married Men.mp4": 1123344970, "Harmony White - 40G-cup Babysitter Likes Married Men.mp4_thumbs_[2016.04.12_10.42.11].jpg": 429021}
创建时间: 2019-06-12 05:37:20 大小:1.05 GB 文件数量:3 热度:9 最近下载:2022-05-13 05:51:58
    {"RARBG.txt": 30, "gush.penthouse.16.12.01.blake.in.pet.of.the.month.december.2016.mp4": 466816878, "gush.penthouse.16.12.01.blake.in.pet.of.the.month.december.2016.nfo": 9229}
创建时间: 2019-06-12 05:41:28 大小:445.2 MB 文件数量:3 热度:13 最近下载:2025-01-06 18:58:03
    {"001 Welcome.mp4": 28191407, "065 Goodbye.mp4": 26772431, "040 Making selections.mp4": 24817919, "043 Solution - Masking.mp4": 54206136, "009 What is typography_.mp4": 28191407, "042 Challenge - Masking.mp4": 26214736, "003 Challenges explained.mp4": ...
创建时间: 2019-06-12 16:35:11 大小:1.69 GB 文件数量:66 热度:6 最近下载:2025-03-29 21:48:04
    {"Torrent Downloaded From ExtraTorrent.cc.nfo": 338, "PublicPickUps - Barbara Bieber - Hot Chick with Huge Boobs.mp4": 466836585}
创建时间: 2019-06-12 22:21:16 大小:445.21 MB 文件数量:2 热度:8 最近下载:2023-12-31 14:29:06